Airfield :
LOGIN :

Register | Disclaimer

   EN    FR    IT 

 










Legend :    VFR   Marginal VFR   IFR   Intensive IFR   Very Intensive IFR
Visi :
Ceiling :
>= 8 km
>= 3000ft
5 to 8 km
1000 to 3000 ft
1500m to 5 km
500 to 1000 ft
800 to 1500m
200 to 500 ft
< 800m
< 200 ft
Symbols :   Thunderstorms  Fog  Heavy snow  Heavy precipitations  Wind > 20 kt
SIGMETs :     Misc.  Thunderstorms  Icing  Turbulence  Mountain Waves  Volcanic Ashes






- Airport Elevation : 56 ft


LPOV - Ovar Air Base

CURRENT METAR :
  • 071100Z 28008KT 9999 SCT025 19/13 Q1020

EXPIRED METARs :
  • 071000Z 34006KT 9999 FEW025 SCT035 19/13 Q1020
  • 070900Z 09004KT 9999 FEW025 SCT035 19/13 Q1020
  • 070800Z VRB02KT 9999 FEW020 SCT035 17/14 Q1020

TAF COR TAF LPOV
Valid from the 07 at 06:00 until the 08 at 06:00 UTC


070806Z 0706/0806 VRB02KT 9999 FEW025
PROB30 0706/0708 4000 BR SCT004 BKN008
BECMG 0710/0712 28008KT
BECMG 0720/0722 VRB02KT SCT004
PROB40 0722/0806 2000 BR BKN002



MET'MAP, your aeronautical weather chart ! - Copyright ORBIFLY December 2007 - Disclaimer

ORBIFLY MET'MAP TEAM :

Programming & Development : Alexandra Zaïnal
Concept & original design : Baudouin d'Aumeries
Assistance for programming : Marc-Olivier Méhu
Technical & hardware support : Manuel Goepfert

Contact : metmap@orbifly.com




SOURCES & CREDITS :

   NOAA